Decoded Metar for UNEE (KEMOROVO in RUSSIA) (IATA:KEJ) | Meteo·Mobile Aviation Weather
aviador You're here:

UNEE Decoded Metar

KEMOROVO in RUSSIA
Report Time2019-07-21 18:00:00
UTC Time2019-07-21 18:21:49
Flight Rules mvfr MVFR
Wind190° at 6 kt
W.Decomp.*RWY 23: 4.1 kt HW 4.4 kt LCW
Visibility5000 m
Phenomena:Smoke
Clouds:Overcast 035 Hf
Expected CloudBase > 1,200 ft AGL from Temp-Dew spread
Ceiling3,500 ft
Temp13°C (ISA -0)
Dew Point10°C (82% RH)
AAT10.9°C
QNH1005 hPa
Density Alt1,257 ft
Elevation853 ft
Report Wrong Elevation
Raw Report
UNEE 211800Z 19003MPS 5000 FU OVC035 13/10 Q1005 R23/CLRD60 NOSIG
RMK QFE731=

Extra information for UNEE:More info

Metar Taf Metar & Taf Last 4 Metars F.Rules Stats Wind Profile Meteogram Temp Stats Airport Information Weather charts Add Link Nearby VenuesMetar ALERT Operation Metar Decoded Social comments